Time;durP1;ratioP1;P1;durP2;ratioP2;P2;SDS_P1;SDS_P2;PMS_P1;PMS_P2;Temp;Humidity;BMP_temperature;BMP_pressure;BME280_temperature;BME280_humidity;BME280_pressure;Samples;Min_cycle;Max_cycle;Signal;HPM_P1;HPM_P2
2021/05/19 04:56:08;;;;;;;9.20;5.50;;;;;;;13.87;95.59;98576.13;1714090;81;21685;-45
2021/05/19 04:58:35;;;;;;;6.78;2.92;;;;;;;14.02;94.57;98578.11;1731967;81;21118;-39
2021/05/19 05:01:02;;;;;;;11.40;3.25;;;;;;;14.07;93.60;98582.27;1730314;81;21125;-44
2021/05/19 05:03:29;;;;;;;8.00;2.87;;;;;;;14.11;91.61;98583.01;1735646;81;21083;-44
2021/05/19 05:05:57;;;;;;;7.87;2.60;;;;;;;14.15;90.00;98583.72;1730758;81;21709;-38
2021/05/19 05:08:24;;;;;;;10.18;3.08;;;;;;;14.17;89.49;98595.91;1734137;81;21086;-37
2021/05/19 05:10:51;;;;;;;4.72;2.42;;;;;;;14.17;88.42;98593.27;1728253;81;21078;-38
2021/05/19 05:13:17;;;;;;;7.67;2.67;;;;;;;14.18;88.99;98594.98;1730387;81;21141;-39
2021/05/19 05:15:44;;;;;;;5.45;2.80;;;;;;;14.18;88.54;98597.61;1730965;81;21106;-38
2021/05/19 05:18:16;;;;;;;4.87;2.55;;;;;;;14.13;87.82;98595.62;1726341;81;21107;-39
2021/05/19 05:20:44;;;;;;;5.25;3.05;;;;;;;14.09;87.53;98598.00;1688841;81;21118;-44
2021/05/19 05:23:12;;;;;;;8.03;3.05;;;;;;;14.08;88.09;98604.16;1731790;81;21578;-44
2021/05/19 05:25:39;;;;;;;6.97;3.27;;;;;;;14.08;87.88;98606.33;1728335;81;21060;-37
2021/05/19 05:28:07;;;;;;;8.30;3.20;;;;;;;14.05;88.09;98605.61;1725352;81;21167;-43
2021/05/19 05:30:34;;;;;;;6.72;3.45;;;;;;;14.03;88.13;98608.74;1705646;81;21342;-38
2021/05/19 05:33:01;;;;;;;5.28;2.90;;;;;;;14.02;88.29;98612.30;1721536;81;21715;-44
2021/05/19 05:35:28;;;;;;;10.10;3.87;;;;;;;14.02;87.93;98614.92;1732650;81;21680;-37
2021/05/19 05:37:56;;;;;;;6.78;3.10;;;;;;;13.99;87.99;98608.49;1727662;80;21445;-38
2021/05/19 05:40:24;;;;;;;3.37;2.20;;;;;;;13.99;88.06;98612.44;1724884;81;21605;-39
2021/05/19 05:42:51;;;;;;;9.03;3.22;;;;;;;14.00;87.79;98608.88;1728688;81;21076;-44
2021/05/19 05:45:18;;;;;;;7.08;3.37;;;;;;;14.02;87.81;98613.14;1728196;81;21049;-38
2021/05/19 05:47:50;;;;;;;5.40;2.85;;;;;;;14.05;87.93;98611.72;1698085;83;21099;-39
2021/05/19 05:53:51;;;;;;;9.90;3.17;;;;;;;14.18;87.45;98613.84;1684026;83;21167;-45
2021/05/19 05:56:57;;;;;;;6.62;2.52;;;;;;;14.22;86.38;98621.55;1731856;81;21110;-45
2021/05/19 06:02:57;;;;;;;5.62;2.72;;;;;;;14.27;86.22;98620.91;1703381;81;21166;-45
2021/05/19 06:05:25;;;;;;;8.30;3.60;;;;;;;14.37;86.32;98627.94;1716866;81;21056;-44
2021/05/19 06:07:53;;;;;;;8.50;3.67;;;;;;;14.47;85.25;98621.41;1718707;82;21425;-45
2021/05/19 06:10:20;;;;;;;7.70;2.98;;;;;;;14.54;85.02;98620.69;1720891;81;21068;-39
2021/05/19 06:12:48;;;;;;;9.58;3.60;;;;;;;14.64;84.71;98624.19;1722669;81;21111;-45
2021/05/19 06:15:15;;;;;;;8.68;2.90;;;;;;;14.83;84.05;98626.02;1725216;81;21115;-44
2021/05/19 06:17:48;;;;;;;5.42;2.10;;;;;;;15.03;84.10;98621.20;1721667;81;21700;-44
2021/05/19 06:20:45;;;;;;;4.53;3.10;;;;;;;15.27;82.39;98622.73;1721990;81;21035;-43
2021/05/19 06:24:16;;;;;;;9.38;2.42;;;;;;;15.59;81.73;98623.87;1722940;81;21102;-39
2021/05/19 06:27:12;;;;;;;4.83;2.50;;;;;;;15.88;78.87;98628.27;1723453;81;21386;-44
2021/05/19 06:30:15;;;;;;;7.05;2.10;;;;;;;15.91;76.17;98630.30;1719010;81;21062;-38
2021/05/19 06:33:43;;;;;;;4.55;2.52;;;;;;;16.07;76.21;98622.52;1726313;81;21200;-43
2021/05/19 06:39:48;;;;;;;4.50;2.40;;;;;;;16.31;68.87;98624.41;1717172;81;21092;-44
2021/05/19 06:42:58;;;;;;;3.62;2.30;;;;;;;16.06;70.05;98623.45;1716757;81;21062;-44
2021/05/19 06:46:17;;;;;;;3.08;2.25;;;;;;;15.72;70.83;98627.31;1715525;81;21520;-44
2021/05/19 06:49:05;;;;;;;5.17;2.22;;;;;;;15.56;73.66;98627.98;1711557;81;21066;-38
2021/05/19 06:51:45;;;;;;;6.60;2.40;;;;;;;15.54;73.99;98634.23;1716646;81;21082;-45
2021/05/19 06:54:18;;;;;;;12.15;2.12;;;;;;;15.55;74.28;98641.23;1724584;81;21043;-45
2021/05/19 06:56:51;;;;;;;6.72;2.55;;;;;;;15.61;74.83;98644.44;1717283;81;21280;-45
2021/05/19 06:59:18;;;;;;;7.08;2.67;;;;;;;15.68;75.21;98644.57;1723953;81;21458;-45
2021/05/19 07:01:47;;;;;;;5.85;1.95;;;;;;;15.78;74.44;98642.37;1695681;82;21142;-45
2021/05/19 07:04:14;;;;;;;9.95;2.37;;;;;;;15.82;74.29;98643.91;1721049;81;21095;-45
2021/05/19 07:06:41;;;;;;;6.35;2.00;;;;;;;15.84;73.60;98646.03;1719633;81;21903;-39
2021/05/19 07:09:08;;;;;;;4.85;2.17;;;;;;;15.88;74.17;98646.25;1726133;81;21043;-45
2021/05/19 07:11:36;;;;;;;5.87;1.22;;;;;;;15.95;72.96;98649.02;1721888;81;21109;-43
2021/05/19 07:14:05;;;;;;;2.65;1.87;;;;;;;16.00;72.40;98648.77;1717785;81;21622;-38
2021/05/19 07:16:36;;;;;;;9.88;2.08;;;;;;;16.11;71.83;98654.85;1717890;81;21105;-45
2021/05/19 07:19:01;;;;;;;3.65;1.20;;;;;;;16.25;69.80;98655.52;1718006;81;21358;-44
2021/05/19 07:21:41;;;;;;;4.97;1.50;;;;;;;16.36;68.23;98659.34;1718067;81;22228;-38
2021/05/19 07:27:42;;;;;;;5.45;1.30;;;;;;;16.66;68.78;98662.70;1723550;81;21146;-38
2021/05/19 07:31:10;;;;;;;3.30;1.27;;;;;;;16.72;67.00;98670.34;1720077;81;20976;-38
2021/05/19 07:34:20;;;;;;;8.13;1.80;;;;;;;16.78;67.17;98670.50;1723823;81;21457;-37
2021/05/19 07:37:32;;;;;;;3.40;2.10;;;;;;;16.78;65.80;98681.91;1656697;84;21111;-38
2021/05/19 07:40:54;;;;;;;8.40;3.80;;;;;;;16.72;66.36;98687.50;1719914;81;21447;-50
2021/05/19 07:43:21;;;;;;;9.88;1.85;;;;;;;16.56;66.70;98686.05;1718621;81;21103;-44
2021/05/19 07:45:50;;;;;;;3.30;1.60;;;;;;;16.49;67.10;98696.53;1722330;81;21474;-38
2021/05/19 07:48:18;;;;;;;3.12;1.27;;;;;;;16.48;67.09;98700.11;1721182;81;21142;-38
2021/05/19 07:50:44;;;;;;;3.25;1.45;;;;;;;16.49;67.22;98693.42;1725841;81;21634;-38
2021/05/19 07:53:12;;;;;;;5.25;1.95;;;;;;;16.56;67.84;98691.80;1719918;81;21116;-38
2021/05/19 07:55:56;;;;;;;3.52;1.80;;;;;;;16.66;67.59;98689.10;1720888;81;21051;-38
2021/05/19 07:58:19;;;;;;;5.20;1.60;;;;;;;16.75;67.71;98686.86;1721591;81;21122;-37
2021/05/19 08:01:00;;;;;;;3.62;1.60;;;;;;;16.89;68.38;98694.11;1722407;81;21027;-38
2021/05/19 08:03:17;;;;;;;1.95;1.37;;;;;;;17.08;67.60;98693.16;1715105;81;21069;-44
2021/05/19 08:05:45;;;;;;;2.80;1.70;;;;;;;17.18;65.98;98691.75;1722352;81;21027;-38
2021/05/19 08:08:12;;;;;;;4.35;1.50;;;;;;;17.26;66.20;98686.91;1719727;81;21059;-44
2021/05/19 08:10:41;;;;;;;2.20;1.30;;;;;;;17.35;66.12;98694.37;1719044;81;21788;-37
2021/05/19 08:13:09;;;;;;;1.70;1.50;;;;;;;17.40;66.19;98696.30;1721290;81;21124;-38
2021/05/19 08:15:38;;;;;;;4.90;1.35;;;;;;;17.51;66.16;98691.73;1723200;81;21704;-38
2021/05/19 08:18:19;;;;;;;3.25;1.25;;;;;;;17.67;66.53;98697.06;1725643;81;21122;-38
2021/05/19 08:21:47;;;;;;;6.05;2.00;;;;;;;17.77;64.71;98696.52;1721598;81;21300;-43
2021/05/19 08:25:08;;;;;;;3.87;1.42;;;;;;;17.76;62.84;98699.26;1717741;81;21867;-44
2021/05/19 08:28:11;;;;;;;4.17;1.45;;;;;;;17.59;63.39;98697.49;1721972;80;21112;-43
2021/05/19 08:34:49;;;;;;;3.25;1.87;;;;;;;17.69;63.12;98702.67;1730572;81;21094;-44
2021/05/19 08:41:33;;;;;;;4.42;1.87;;;;;;;17.84;62.87;98702.33;1732201;81;21062;-44
2021/05/19 08:44:07;;;;;;;3.23;1.90;;;;;;;17.82;62.26;98704.21;1729970;81;20999;-44
2021/05/19 08:46:35;;;;;;;3.00;1.40;;;;;;;17.75;61.97;98707.66;1727446;81;21067;-38
2021/05/19 08:49:44;;;;;;;2.70;1.72;;;;;;;17.72;62.77;98705.64;1726743;81;21051;-39
2021/05/19 08:52:29;;;;;;;2.10;1.50;;;;;;;17.71;63.61;98705.23;1726741;81;21732;-38
2021/05/19 08:54:57;;;;;;;2.85;1.45;;;;;;;17.68;62.93;98700.09;1723808;81;21382;-38
2021/05/19 08:57:24;;;;;;;3.05;1.45;;;;;;;17.64;62.57;98699.89;1724573;80;21095;-38
2021/05/19 08:59:52;;;;;;;4.15;1.70;;;;;;;17.62;62.38;98697.31;1717488;81;21087;-38
2021/05/19 09:02:18;;;;;;;4.08;1.77;;;;;;;17.60;63.58;98697.02;1717530;81;21078;-38
2021/05/19 09:04:46;;;;;;;3.98;1.75;;;;;;;17.64;63.24;98687.52;1714428;81;21094;-44
2021/05/19 09:10:37;;;;;;;2.97;1.30;;;;;;;17.81;62.75;98690.61;1713424;81;21051;-44
2021/05/19 09:13:04;;;;;;;3.80;1.25;;;;;;;17.88;61.43;98684.50;1718789;81;21670;-38
2021/05/19 09:15:48;;;;;;;1.98;1.42;;;;;;;17.91;60.99;98679.03;1719032;81;21082;-38
2021/05/19 09:18:58;;;;;;;1.67;1.17;;;;;;;17.97;60.70;98671.59;1719660;81;21109;-37
2021/05/19 09:22:29;;;;;;;1.95;1.17;;;;;;;18.17;59.85;98678.91;1715358;81;21134;-44
2021/05/19 09:26:02;;;;;;;7.08;1.17;;;;;;;18.35;59.02;98673.89;1717076;81;21059;-38
2021/05/19 09:29:39;;;;;;;3.17;1.10;;;;;;;18.45;59.59;98680.84;1716304;82;21240;-37
2021/05/19 09:33:38;;;;;;;2.15;1.10;;;;;;;18.55;59.24;98673.61;1720453;81;21832;-44
2021/05/19 09:40:13;;;;;;;4.62;1.10;;;;;;;18.54;61.25;98682.95;1721902;81;22328;-40
2021/05/19 09:55:08;;;;;;;3.17;1.00;;;;;;;18.85;60.38;98684.23;1727844;81;21098;-47
2021/05/19 09:58:51;;;;;;;1.20;1.10;;;;;;;18.98;60.00;98684.83;1716003;82;21673;-44
2021/05/19 10:02:13;;;;;;;0.78;0.75;;;;;;;19.00;59.49;98687.75;1723472;80;21066;-47
2021/05/19 10:05:12;;;;;;;0.80;0.70;;;;;;;18.97;57.84;98685.77;1709161;81;21967;-44
2021/05/19 10:07:44;;;;;;;7.08;0.90;;;;;;;18.98;58.53;98687.48;1718282;81;21643;-39
2021/05/19 10:10:13;;;;;;;0.82;0.68;;;;;;;19.07;58.57;98690.88;1730853;81;21127;-43
2021/05/19 10:12:46;;;;;;;2.33;0.75;;;;;;;19.13;56.73;98694.48;1708555;81;21044;-45
2021/05/19 10:15:22;;;;;;;0.78;0.55;;;;;;;19.19;57.54;98692.79;1703710;81;21085;-45
2021/05/19 10:25:52;;;;;;;1.92;0.47;;;;;;;19.33;55.46;98690.17;1717454;81;21007;-39
2021/05/19 10:28:59;;;;;;;0.95;0.70;;;;;;;19.62;53.92;98685.75;1706535;81;21127;-44
2021/05/19 10:40:09;;;;;;;0.42;0.40;;;;;;;20.88;51.13;98679.81;1720779;81;21709;-40
2021/05/19 10:43:01;;;;;;;0.57;0.50;;;;;;;21.56;49.84;98686.66;1717028;81;21152;-39
2021/05/19 10:45:29;;;;;;;0.85;0.30;;;;;;;21.77;45.35;98683.81;1721954;81;21078;-40
2021/05/19 10:48:24;;;;;;;4.78;0.40;;;;;;;21.69;45.03;98692.84;1732362;81;21108;-38
2021/05/19 10:50:51;;;;;;;0.55;0.53;;;;;;;21.49;45.33;98694.22;1725407;81;21003;-45
2021/05/19 10:58:54;;;;;;;6.40;1.57;;;;;;;20.87;48.75;98703.81;1727289;81;21102;-40
2021/05/19 11:01:50;;;;;;;6.08;1.10;;;;;;;20.21;51.43;98692.20;1717765;82;21078;-39
2021/05/19 11:04:18;;;;;;;2.92;1.07;;;;;;;19.71;53.60;98694.92;1715443;83;21194;-40
2021/05/19 11:07:04;;;;;;;4.17;1.17;;;;;;;19.41;54.82;98689.22;1715740;81;21132;-39
2021/05/19 11:09:34;;;;;;;2.67;1.50;;;;;;;19.23;55.68;98697.45;1712456;81;21714;-44
2021/05/19 11:12:27;;;;;;;5.92;1.10;;;;;;;19.09;55.69;98696.48;1714855;81;21760;-47
2021/05/19 11:17:44;;;;;;;1.70;1.07;;;;;;;19.21;56.48;98703.33;1666143;84;21455;-41
2021/05/19 11:20:12;;;;;;;2.77;1.50;;;;;;;19.38;54.40;98705.81;1644484;85;21683;-41
2021/05/19 11:22:40;;;;;;;4.25;2.00;;;;;;;19.32;54.18;98711.01;1671327;84;21137;-43
2021/05/19 11:25:10;;;;;;;2.52;1.90;;;;;;;19.21;54.16;98709.95;1668809;84;22035;-40
2021/05/19 11:27:37;;;;;;;6.67;2.17;;;;;;;19.11;55.27;98709.16;1668067;84;21109;-44
2021/05/19 11:30:10;;;;;;;2.50;1.60;;;;;;;19.04;55.38;98706.51;1670194;84;21476;-46
2021/05/19 11:32:37;;;;;;;2.90;1.77;;;;;;;18.98;55.68;98712.65;1670498;84;21160;-41
2021/05/19 11:35:22;;;;;;;3.27;1.65;;;;;;;18.88;56.78;98706.55;1668958;85;21098;-42
2021/05/19 11:38:06;;;;;;;5.47;1.75;;;;;;;18.80;57.01;98710.61;1638409;85;21282;-38
2021/05/19 11:40:49;;;;;;;4.25;1.62;;;;;;;18.75;59.09;98706.90;1675139;84;21561;-38
2021/05/19 11:43:23;;;;;;;2.60;1.80;;;;;;;18.80;58.83;98711.94;1675599;84;21106;-45
2021/05/19 11:45:58;;;;;;;1.92;1.32;;;;;;;18.92;57.82;98708.56;1672930;85;21019;-39
2021/05/19 11:48:28;;;;;;;2.98;1.82;;;;;;;19.13;57.64;98716.58;1670563;84;21140;-46
2021/05/19 11:50:55;;;;;;;2.25;1.27;;;;;;;19.29;58.59;98707.68;1686888;83;21583;-46
2021/05/19 11:53:22;;;;;;;11.38;9.35;;;;;;;19.47;56.74;98710.53;1724576;81;21437;-44
2021/05/19 11:55:52;;;;;;;2.33;1.90;;;;;;;19.61;56.86;98702.63;1718650;81;21042;-38
2021/05/19 11:58:25;;;;;;;5.08;1.62;;;;;;;19.74;54.09;98702.70;1714862;83;21519;-38
2021/05/19 12:00:59;;;;;;;2.47;1.20;;;;;;;19.76;54.85;98701.28;1714778;82;21430;-38
2021/05/19 12:03:27;;;;;;;5.53;1.77;;;;;;;19.78;53.68;98699.41;1717002;81;21071;-38
2021/05/19 12:06:04;;;;;;;3.72;2.00;;;;;;;19.83;53.51;98701.27;1726945;81;21443;-38
2021/05/19 12:08:38;;;;;;;4.05;0.98;;;;;;;19.85;53.71;98701.56;1724272;81;21078;-38
2021/05/19 12:11:12;;;;;;;5.90;1.45;;;;;;;19.95;52.94;98700.99;1715911;82;21035;-38
2021/05/19 12:13:44;;;;;;;3.10;0.85;;;;;;;20.03;52.74;98704.00;1726913;81;21127;-43
2021/05/19 12:16:17;;;;;;;1.95;1.35;;;;;;;20.10;52.20;98703.98;1715525;83;21280;-43
2021/05/19 12:19:14;;;;;;;1.35;1.25;;;;;;;20.18;51.65;98703.88;1716928;81;21052;-38
2021/05/19 12:21:52;;;;;;;1.17;0.90;;;;;;;20.25;51.65;98707.47;1717937;81;21527;-43
2021/05/19 12:24:28;;;;;;;3.45;1.42;;;;;;;20.30;50.02;98710.67;1708176;82;21639;-44
2021/05/19 12:26:56;;;;;;;2.72;0.80;;;;;;;20.27;50.89;98714.84;1698848;83;21415;-44
2021/05/19 12:29:48;;;;;;;8.03;0.90;;;;;;;20.22;49.16;98714.28;1712826;83;21616;-44
2021/05/19 12:32:25;;;;;;;8.53;0.78;;;;;;;20.14;49.15;98711.66;1715173;82;21113;-44
2021/05/19 12:35:06;;;;;;;1.65;0.80;;;;;;;20.06;50.37;98711.30;1715767;82;21617;-38
2021/05/19 12:37:56;;;;;;;3.17;0.70;;;;;;;20.08;49.70;98710.72;1711443;83;21105;-38
2021/05/19 12:40:25;;;;;;;3.50;0.62;;;;;;;20.18;50.17;98712.33;1719823;83;21048;-44
2021/05/19 12:43:00;;;;;;;3.33;0.70;;;;;;;20.30;48.44;98712.86;1718537;82;21077;-44
2021/05/19 12:45:35;;;;;;;4.72;0.70;;;;;;;20.33;48.35;98719.76;1725441;82;21049;-39
2021/05/19 12:48:13;;;;;;;0.70;0.70;;;;;;;20.24;47.60;98719.89;1728665;83;21057;-38
2021/05/19 12:50:58;;;;;;;1.30;0.40;;;;;;;20.13;47.35;98721.05;1713972;82;21052;-38
2021/05/19 12:53:45;;;;;;;9.10;0.70;;;;;;;20.07;48.71;98718.31;1722919;82;21113;-39
2021/05/19 12:56:20;;;;;;;1.82;0.90;;;;;;;20.06;49.42;98728.56;1717893;81;21085;-38
2021/05/19 12:59:05;;;;;;;1.35;0.60;;;;;;;20.06;50.57;98720.59;1698686;83;21164;-44
2021/05/19 13:01:30;;;;;;;0.93;0.65;;;;;;;20.10;51.20;98719.42;1727820;82;21045;-39
2021/05/19 13:04:01;;;;;;;4.92;0.70;;;;;;;20.08;49.81;98718.69;1723071;82;21070;-39
2021/05/19 13:06:31;;;;;;;3.02;0.90;;;;;;;19.95;50.05;98723.55;1721875;83;21056;-38
2021/05/19 13:09:03;;;;;;;0.57;0.57;;;;;;;19.78;49.58;98720.63;1721112;83;21662;-38
2021/05/19 13:11:33;;;;;;;4.72;0.72;;;;;;;19.68;50.64;98720.81;1720767;83;21031;-38
2021/05/19 13:14:01;;;;;;;2.90;0.70;;;;;;;19.68;50.81;98716.83;1721604;83;21056;-38
2021/05/19 13:16:35;;;;;;;2.15;1.00;;;;;;;19.69;51.52;98717.20;1721293;83;21036;-39
2021/05/19 13:19:05;;;;;;;;;;;;;;;19.65;51.60;98713.40;1724403;83;21715;-43
2021/05/19 13:21:41;;;;;;;6.70;1.12;;;;;;;19.71;53.53;98717.48;1721778;83;20170;-38
2021/05/19 13:24:09;;;;;;;1.92;0.85;;;;;;;19.85;51.87;98709.52;1711704;83;21081;-38
2021/05/19 13:26:39;;;;;;;0.98;0.88;;;;;;;20.09;53.83;98711.09;1720309;83;21088;-44
2021/05/19 13:29:07;;;;;;;1.02;0.90;;;;;;;20.34;53.51;98709.03;1717228;83;21136;-44
2021/05/19 13:31:41;;;;;;;1.98;0.88;;;;;;;20.61;53.53;98708.22;1722184;81;21071;-44
2021/05/19 13:34:24;;;;;;;1.77;1.12;;;;;;;20.82;53.02;98705.95;1721437;83;21104;-44
2021/05/19 13:36:46;;;;;;;1.17;1.00;;;;;;;20.90;52.77;98711.59;1718172;83;21097;-44
2021/05/19 13:39:17;;;;;;;1.62;0.75;;;;;;;20.91;52.04;98714.14;1721214;82;21113;-38
2021/05/19 13:41:49;;;;;;;1.00;0.80;;;;;;;20.95;51.83;98724.10;1721643;82;21064;-44
2021/05/19 13:44:18;;;;;;;4.25;0.72;;;;;;;21.01;52.62;98724.17;1718311;83;21045;-44
2021/05/19 13:46:51;;;;;;;1.77;0.78;;;;;;;21.01;54.64;98713.53;1718859;83;21169;-44
2021/05/19 13:49:23;;;;;;;4.70;0.70;;;;;;;20.98;55.56;98720.74;1732830;82;21057;-44
2021/05/19 13:51:59;;;;;;;2.15;0.68;;;;;;;20.84;55.59;98716.84;1720238;83;21115;-40
2021/05/19 13:54:26;;;;;;;1.45;0.50;;;;;;;20.80;56.43;98720.65;1721161;82;21028;-38
2021/05/19 13:56:53;;;;;;;2.37;0.70;;;;;;;20.90;56.47;98724.88;1721544;83;21155;-38
